Terminal Aerodrome Forecast
Issued by NWS

Home | Current Version | Previous Version | Text Only | Print | Product List | Glossary On
Versions: 1 2 3 4 5 6 7 8 9 10 11 12 13
000
FTUS45 KPIH 212300
TAFSUN
TAF
KSUN 212320Z 2200/2224 VRB05KT P6SM VCSH BKN060 BKN180
     FM220800 31006KT P6SM -SHRA BKN060 BKN150
     FM221100 31006KT P6SM SCT060 BKN090 BKN150
     FM221400 VRB05KT P6SM -SHRA BKN060 OVC100
     FM221800 14006KT P6SM -SHRA VCTS BKN060CB
      AMD LTD TO CLD VIS AND WIND 2205/2213=

USA.gov is the U.S. government's official web portal to all federal, state and local government web resources and services.